Time;durP1;ratioP1;P1;durP2;ratioP2;P2;SDS_P1;SDS_P2;PMS_P1;PMS_P2;Temp;Humidity;BMP_temperature;BMP_pressure;BME280_temperature;BME280_humidity;BME280_pressure;Samples;Min_cycle;Max_cycle;Signal;HPM_P1;HPM_P2
2022/01/12 00:04:10;;;;;;;;;;;;;;;-1.54;78.79;97392.22;10287248;28;97286;-74
2022/01/12 00:09:14;;;;;;;;;;;;;;;-1.52;80.74;97394.75;10285453;28;99562;-73
2022/01/12 00:14:17;;;;;;;;;;;;;;;-1.49;79.12;97397.22;10290348;28;97060;-73
2022/01/12 00:19:22;;;;;;;;;;;;;;;-1.48;80.17;97392.06;10289720;28;98072;-73
2022/01/12 00:24:38;;;;;;;;;;;;;;;-1.51;80.37;97392.13;10285384;28;96902;-73
2022/01/12 00:35:03;;;;;;;;;;;;;;;-1.54;79.90;97396.50;10289293;28;98943;-74
2022/01/12 00:40:06;;;;;;;;;;;;;;;-1.61;78.98;97395.84;10288241;28;96934;-73
2022/01/12 00:45:09;;;;;;;;;;;;;;;-1.59;79.97;97399.19;10290257;28;98115;-74
2022/01/12 00:50:13;;;;;;;;;;;;;;;-1.64;79.90;97395.94;10296185;28;96977;-74
2022/01/12 00:55:16;;;;;;;;;;;;;;;-1.74;79.88;97392.81;10301728;28;96725;-74
2022/01/12 01:00:19;;;;;;;;;;;;;;;-1.83;80.57;97393.06;10296144;28;101629;-74
2022/01/12 01:05:24;;;;;;;;;;;;;;;-1.91;79.99;97393.28;10302734;28;96852;-74
2022/01/12 01:10:36;;;;;;;;;;;;;;;-1.92;81.17;97391.59;10299426;28;97781;-74
2022/01/12 01:15:55;;;;;;;;;;;;;;;-1.93;79.99;97399.34;10297559;28;96859;-74
2022/01/12 01:26:31;;;;;;;;;;;;;;;-1.95;77.44;97396.81;10220110;28;96985;-74
2022/01/12 01:31:34;;;;;;;;;;;;;;;-1.90;79.96;97389.84;10206573;28;96907;-74
2022/01/12 01:36:40;;;;;;;;;;;;;;;-1.89;79.34;97385.56;10204318;28;97177;-74
2022/01/12 01:41:47;;;;;;;;;;;;;;;-1.92;78.63;97378.78;10206516;28;97833;-74
2022/01/12 01:57:31;;;;;;;;;;;;;;;-2.00;79.22;97378.19;10212262;28;96938;-73
2022/01/12 02:02:34;;;;;;;;;;;;;;;-2.08;80.34;97375.00;10299077;28;96767;-72
2022/01/12 02:07:38;;;;;;;;;;;;;;;-2.09;80.57;97379.28;10297572;28;96833;-73
2022/01/12 02:12:41;;;;;;;;;;;;;;;-2.07;80.91;97376.69;10296012;28;96896;-73
2022/01/12 02:17:57;;;;;;;;;;;;;;;-2.09;80.57;97373.28;10297786;28;96927;-72
2022/01/12 02:55:06;;;;;;;;;;;;;;;-2.38;81.20;97367.25;10296395;28;99907;-72
2022/01/12 03:00:13;;;;;;;;;;;;;;;-2.43;79.45;97364.81;10292886;28;96703;-72
2022/01/12 03:10:39;;;;;;;;;;;;;;;-2.52;79.59;97364.22;10294891;28;102056;-73
2022/01/12 03:15:42;;;;;;;;;;;;;;;-2.50;80.61;97367.59;10293687;28;97336;-73
2022/01/12 03:20:45;;;;;;;;;;;;;;;-2.52;80.50;97375.28;10295351;28;96890;-72
2022/01/12 03:25:50;;;;;;;;;;;;;;;-2.56;80.99;97378.78;10294572;28;96829;-72
2022/01/12 03:30:55;;;;;;;;;;;;;;;-2.60;81.07;97378.03;10296713;28;97076;-72
2022/01/12 03:36:23;;;;;;;;;;;;;;;-2.61;80.33;97384.06;10292984;28;101075;-72
2022/01/12 03:41:28;;;;;;;;;;;;;;;-2.58;80.70;97384.84;10291228;28;97158;-73
2022/01/12 03:46:32;;;;;;;;;;;;;;;-2.52;81.17;97384.69;10294139;28;97008;-72
2022/01/12 03:51:35;;;;;;;;;;;;;;;-2.49;80.81;97384.59;10292218;28;97547;-72
2022/01/12 03:56:39;;;;;;;;;;;;;;;-2.47;79.83;97386.25;10295071;28;96773;-72
2022/01/12 04:01:42;;;;;;;;;;;;;;;-2.48;79.89;97391.41;10294539;28;97562;-72
2022/01/12 04:12:24;;;;;;;;;;;;;;;-2.50;81.23;97393.16;10277414;28;96876;-72
2022/01/12 04:17:27;;;;;;;;;;;;;;;-2.46;81.13;97397.31;10295853;28;96874;-72
2022/01/12 04:27:51;;;;;;;;;;;;;;;-2.40;79.35;97397.19;10292612;28;99670;-73
2022/01/12 04:32:54;;;;;;;;;;;;;;;-2.38;79.86;97407.38;10275550;28;96729;-72
2022/01/12 04:37:56;;;;;;;;;;;;;;;-2.40;79.46;97409.97;10299023;28;96771;-72
2022/01/12 04:43:00;;;;;;;;;;;;;;;-2.39;81.08;97415.91;10293176;28;99914;-72
2022/01/12 04:48:19;;;;;;;;;;;;;;;-2.37;79.64;97419.28;10291518;28;98271;-72
2022/01/12 04:53:22;;;;;;;;;;;;;;;-2.33;80.81;97421.72;10296751;28;96882;-72
2022/01/12 04:58:27;;;;;;;;;;;;;;;-2.29;81.33;97418.19;10292640;28;97067;-72
2022/01/12 05:09:07;;;;;;;;;;;;;;;-2.32;79.48;97427.69;10245543;28;96928;-72
2022/01/12 05:14:10;;;;;;;;;;;;;;;-2.37;80.79;97426.94;10249437;28;96967;-72
2022/01/12 05:19:13;;;;;;;;;;;;;;;-2.41;78.60;97433.88;10247163;28;97067;-72
2022/01/12 05:24:16;;;;;;;;;;;;;;;-2.39;81.14;97447.47;10244021;28;96838;-72
2022/01/12 05:29:20;;;;;;;;;;;;;;;-2.44;80.19;97456.97;10250336;28;96924;-72
2022/01/12 05:34:25;;;;;;;;;;;;;;;-2.51;80.32;97456.28;10246754;28;97256;-73
2022/01/12 05:39:27;;;;;;;;;;;;;;;-2.52;81.10;97462.28;10249510;28;97119;-72
2022/01/12 05:44:52;;;;;;;;;;;;;;;-2.55;80.06;97469.19;10276904;28;96911;-72
2022/01/12 05:49:54;;;;;;;;;;;;;;;-2.55;81.15;97466.66;10300890;28;96845;-72
2022/01/12 05:54:59;;;;;;;;;;;;;;;-2.51;80.74;97473.34;10297719;28;96794;-72
2022/01/12 06:00:04;;;;;;;;;;;;;;;-2.54;81.15;97461.50;10295201;28;96796;-72
2022/01/12 06:05:08;;;;;;;;;;;;;;;-2.54;81.22;97478.53;10299242;28;97098;-72
2022/01/12 06:10:11;;;;;;;;;;;;;;;-2.55;80.01;97476.88;10297323;28;96876;-72
2022/01/12 06:15:15;;;;;;;;;;;;;;;-2.61;80.91;97481.25;10294392;28;96769;-72
2022/01/12 06:20:18;;;;;;;;;;;;;;;-2.62;81.25;97492.34;10300103;28;98013;-72
2022/01/12 06:25:20;;;;;;;;;;;;;;;-2.61;79.50;97504.28;10297075;28;96879;-72
2022/01/12 06:35:46;;;;;;;;;;;;;;;-2.68;80.59;97523.22;10297252;28;96979;-72
2022/01/12 06:40:48;;;;;;;;;;;;;;;-2.71;81.04;97523.28;10293769;28;96868;-72
2022/01/12 06:45:53;;;;;;;;;;;;;;;-2.74;80.56;97537.84;10298761;28;96844;-73
2022/01/12 06:50:56;;;;;;;;;;;;;;;-2.73;81.85;97549.75;10281929;28;96695;-72
2022/01/12 06:55:59;;;;;;;;;;;;;;;-2.76;80.85;97555.78;10295911;28;96978;-72
2022/01/12 07:01:03;;;;;;;;;;;;;;;-2.77;80.46;97559.22;10292237;28;96964;-72
2022/01/12 07:06:06;;;;;;;;;;;;;;;-2.71;81.32;97564.22;10292546;28;96972;-72
2022/01/12 07:11:10;;;;;;;;;;;;;;;-2.72;79.00;97574.47;10297444;28;98077;-72
2022/01/12 07:16:14;;;;;;;;;;;;;;;-2.71;79.37;97579.56;10295679;28;97130;-72
2022/01/12 07:21:17;;;;;;;;;;;;;;;-2.67;81.67;97596.50;10290720;28;97218;-72
2022/01/12 07:26:19;;;;;;;;;;;;;;;-2.65;79.69;97610.09;10291394;28;96914;-72
2022/01/12 07:31:24;;;;;;;;;;;;;;;-2.52;80.79;97607.31;10295162;28;97092;-73
2022/01/12 07:36:27;;;;;;;;;;;;;;;-2.37;81.28;97600.97;10291524;28;96948;-72
2022/01/12 07:41:30;;;;;;;;;;;;;;;-2.26;80.15;97606.72;10301199;28;96744;-72
2022/01/12 07:46:34;;;;;;;;;;;;;;;-2.20;80.13;97601.44;10294604;28;97065;-74
2022/01/12 07:51:37;;;;;;;;;;;;;;;-2.18;79.85;97606.53;10287555;28;97154;-72
2022/01/12 07:56:39;;;;;;;;;;;;;;;-2.18;79.19;97611.63;10279965;28;97589;-72
2022/01/12 08:01:43;;;;;;;;;;;;;;;-2.21;80.54;97620.25;10288229;28;97276;-73
2022/01/12 08:06:47;;;;;;;;;;;;;;;-2.27;80.89;97634.00;10290941;28;97328;-73
2022/01/12 08:11:49;;;;;;;;;;;;;;;-2.26;81.10;97630.59;10291649;28;97352;-72
2022/01/12 08:16:54;;;;;;;;;;;;;;;-2.24;81.97;97636.50;10287995;28;97191;-72
2022/01/12 08:22:02;;;;;;;;;;;;;;;-2.26;80.25;97648.50;10291490;28;97791;-72
2022/01/12 08:27:05;;;;;;;;;;;;;;;-2.24;79.61;97651.03;10284119;28;97935;-72
2022/01/12 08:32:09;;;;;;;;;;;;;;;-2.08;82.19;97643.84;10290884;28;97130;-72
2022/01/12 08:37:12;;;;;;;;;;;;;;;-2.01;82.01;97647.94;10287319;28;97221;-72
2022/01/12 08:42:15;;;;;;;;;;;;;;;-2.05;81.01;97667.66;10285056;28;97282;-74
2022/01/12 08:47:22;;;;;;;;;;;;;;;-2.07;79.41;97671.97;10284390;28;97179;-72
2022/01/12 08:52:25;;;;;;;;;;;;;;;-2.13;80.08;97673.81;10288600;28;96969;-72
2022/01/12 08:57:29;;;;;;;;;;;;;;;-2.09;80.22;97672.88;10284052;28;97236;-73
2022/01/12 09:02:33;;;;;;;;;;;;;;;-2.06;80.00;97675.38;10287942;28;97214;-73
2022/01/12 09:07:36;;;;;;;;;;;;;;;-2.09;80.93;97693.34;10284871;28;97221;-73
2022/01/12 09:12:39;;;;;;;;;;;;;;;-2.08;77.42;97693.31;10290189;28;96966;-74
2022/01/12 09:17:44;;;;;;;;;;;;;;;-2.06;79.07;97690.72;10293647;28;97702;-73
2022/01/12 09:22:47;;;;;;;;;;;;;;;-2.07;79.59;97704.44;10297398;28;98818;-74
2022/01/12 09:27:49;;;;;;;;;;;;;;;-2.00;79.50;97705.97;10288072;28;98309;-73
2022/01/12 09:32:53;;;;;;;;;;;;;;;-1.97;80.84;97707.59;10283339;28;97256;-73
2022/01/12 09:37:56;;;;;;;;;;;;;;;-1.96;78.79;97707.56;10287086;28;98127;-74
2022/01/12 09:43:04;;;;;;;;;;;;;;;-1.93;78.95;97712.63;10290480;28;97905;-74
2022/01/12 09:48:10;;;;;;;;;;;;;;;-1.88;80.86;97715.09;10289884;28;97479;-74
2022/01/12 09:53:13;;;;;;;;;;;;;;;-1.87;80.20;97712.47;10291136;28;97106;-73
2022/01/12 09:58:16;;;;;;;;;;;;;;;-1.81;80.21;97718.34;10295689;28;96734;-73
2022/01/12 10:03:20;;;;;;;;;;;;;;;-1.76;80.21;97719.06;10286709;28;97314;-73
2022/01/12 10:08:23;;;;;;;;;;;;;;;-1.71;81.26;97714.69;10291477;28;97171;-74
2022/01/12 10:13:26;;;;;;;;;;;;;;;-1.64;80.73;97713.66;10296566;28;99697;-73
2022/01/12 10:18:30;;;;;;;;;;;;;;;-1.65;81.40;97706.88;10293371;28;96915;-73
2022/01/12 10:23:38;;;;;;;;;;;;;;;-1.60;80.25;97710.16;10298330;28;97118;-73
2022/01/12 10:28:40;;;;;;;;;;;;;;;-1.48;80.96;97689.34;10298166;28;97376;-73
2022/01/12 10:33:44;;;;;;;;;;;;;;;-1.40;80.82;97689.16;10294436;28;97332;-73
2022/01/12 10:38:47;;;;;;;;;;;;;;;-1.37;80.74;97689.09;10296423;28;97991;-75
2022/01/12 10:43:50;;;;;;;;;;;;;;;-1.36;80.58;97690.78;10302381;28;96862;-71
2022/01/12 10:48:55;;;;;;;;;;;;;;;-1.37;80.75;97680.56;10298624;28;96724;-72
2022/01/12 10:54:00;;;;;;;;;;;;;;;-1.36;80.96;97677.09;10293881;28;97145;-72
2022/01/12 10:59:03;;;;;;;;;;;;;;;-1.34;80.83;97672.81;10296135;28;96881;-72
2022/01/12 11:04:07;;;;;;;;;;;;;;;-1.30;81.74;97667.53;10288976;28;98567;-72
2022/01/12 11:09:10;;;;;;;;;;;;;;;-1.24;80.67;97650.31;10292439;28;97027;-72
2022/01/12 11:14:13;;;;;;;;;;;;;;;-1.19;80.97;97649.28;10292723;28;96876;-72
2022/01/12 11:19:19;;;;;;;;;;;;;;;-1.06;81.04;97643.88;10293858;28;96883;-72
2022/01/12 11:24:24;;;;;;;;;;;;;;;-0.95;80.76;97641.84;10290401;28;96923;-72
2022/01/12 11:29:27;;;;;;;;;;;;;;;-0.85;80.77;97639.88;10297451;28;96919;-73
2022/01/12 11:34:31;;;;;;;;;;;;;;;-0.76;81.04;97637.84;10293693;28;96845;-73
2022/01/12 11:39:33;;;;;;;;;;;;;;;-0.68;81.10;97623.97;10293097;28;97128;-73
2022/01/12 11:44:38;;;;;;;;;;;;;;;-0.56;81.56;97624.47;10295088;28;96748;-73
2022/01/12 11:49:44;;;;;;;;;;;;;;;-0.48;81.37;97625.97;10293755;28;98114;-73
2022/01/12 11:54:48;;;;;;;;;;;;;;;-0.43;81.66;97622.34;10293813;28;96926;-72
2022/01/12 11:59:51;;;;;;;;;;;;;;;-0.28;81.47;97604.81;10292782;28;96819;-74
2022/01/12 12:04:57;;;;;;;;;;;;;;;-0.27;81.00;97609.06;10293430;28;96795;-73
2022/01/12 12:10:10;;;;;;;;;;;;;;;-0.21;81.24;97603.75;10293954;28;97245;-73
2022/01/12 12:15:13;;;;;;;;;;;;;;;-0.14;81.27;97607.78;10286289;28;98083;-73
2022/01/12 12:20:19;;;;;;;;;;;;;;;-0.00;81.64;97602.22;10287533;28;97137;-73
2022/01/12 12:25:22;;;;;;;;;;;;;;;0.17;81.41;97599.94;10286075;28;96853;-73
2022/01/12 12:30:27;;;;;;;;;;;;;;;0.33;80.63;97604.59;10287870;28;97554;-73
2022/01/12 12:35:32;;;;;;;;;;;;;;;0.38;81.28;97595.81;10282348;28;97185;-73
2022/01/12 12:40:36;;;;;;;;;;;;;;;0.46;80.38;97594.72;10283286;28;96942;-73
2022/01/12 12:45:40;;;;;;;;;;;;;;;0.49;80.54;97600.59;10285473;28;97879;-73
2022/01/12 12:50:44;;;;;;;;;;;;;;;0.55;81.77;97590.09;10286025;28;97390;-73
2022/01/12 12:55:47;;;;;;;;;;;;;;;0.56;81.12;97589.19;10293759;28;96943;-73
2022/01/12 13:00:49;;;;;;;;;;;;;;;0.49;80.00;97592.88;10292348;28;96734;-73
2022/01/12 13:05:54;;;;;;;;;;;;;;;0.54;80.59;97601.28;10290672;28;96817;-73
2022/01/12 13:10:57;;;;;;;;;;;;;;;0.69;80.97;97602.50;10293943;28;96832;-73
2022/01/12 13:16:00;;;;;;;;;;;;;;;0.74;81.20;97610.03;10288255;28;96974;-73
2022/01/12 13:21:11;;;;;;;;;;;;;;;0.75;78.69;97606.56;10289025;28;97387;-73
2022/01/12 13:26:15;;;;;;;;;;;;;;;0.73;81.08;97613.50;10290222;28;96817;-72
2022/01/12 13:31:19;;;;;;;;;;;;;;;0.82;80.95;97602.88;10295167;28;96808;-73
2022/01/12 13:36:24;;;;;;;;;;;;;;;0.78;79.83;97612.44;10285665;28;96856;-73
2022/01/12 13:41:28;;;;;;;;;;;;;;;0.80;81.02;97605.50;10293811;28;96910;-74
2022/01/12 13:46:31;;;;;;;;;;;;;;;0.91;80.05;97606.88;10298342;28;98455;-74
2022/01/12 13:51:39;;;;;;;;;;;;;;;0.92;80.75;97599.09;10289012;28;97024;-74
2022/01/12 13:56:42;;;;;;;;;;;;;;;0.94;79.76;97593.91;10292627;28;96856;-74
2022/01/12 14:01:46;;;;;;;;;;;;;;;1.04;79.55;97597.00;10297470;28;97908;-74
2022/01/12 14:06:53;;;;;;;;;;;;;;;1.13;80.13;97592.31;10292986;28;96949;-73
2022/01/12 14:11:56;;;;;;;;;;;;;;;1.20;79.90;97592.13;10272538;28;97559;-73
2022/01/12 14:16:58;;;;;;;;;;;;;;;1.34;79.61;97595.00;10296657;28;96974;-74
2022/01/12 14:22:02;;;;;;;;;;;;;;;1.34;80.20;97595.84;10296675;28;96915;-73
2022/01/12 14:27:05;;;;;;;;;;;;;;;1.37;80.52;97597.47;10293667;28;97148;-73
2022/01/12 14:32:08;;;;;;;;;;;;;;;1.43;79.05;97589.50;10300122;28;96920;-73
2022/01/12 14:37:14;;;;;;;;;;;;;;;1.51;79.98;97597.78;10295624;28;96764;-74
2022/01/12 14:42:17;;;;;;;;;;;;;;;1.50;79.73;97601.25;10292827;28;96836;-74
2022/01/12 14:47:20;;;;;;;;;;;;;;;1.51;80.17;97599.53;10299592;28;97993;-73
2022/01/12 14:52:24;;;;;;;;;;;;;;;1.55;80.25;97604.47;10294880;28;97125;-73
2022/01/12 14:57:26;;;;;;;;;;;;;;;1.55;80.44;97614.78;10291952;28;97618;-74
2022/01/12 15:02:29;;;;;;;;;;;;;;;1.56;79.90;97624.22;10298566;28;97091;-73
2022/01/12 15:07:33;;;;;;;;;;;;;;;1.61;80.83;97623.19;10293729;28;96763;-73
2022/01/12 15:12:38;;;;;;;;;;;;;;;1.62;79.12;97624.88;10293093;28;98196;-73
2022/01/12 15:17:41;;;;;;;;;;;;;;;1.60;80.96;97629.25;10294711;28;99811;-73
2022/01/12 15:22:46;;;;;;;;;;;;;;;1.60;80.51;97634.41;10294887;28;97238;-72
2022/01/12 15:27:49;;;;;;;;;;;;;;;1.53;80.78;97623.47;10294203;28;96909;-73
2022/01/12 15:32:53;;;;;;;;;;;;;;;1.49;80.25;97625.34;10293551;28;96993;-73
2022/01/12 15:37:58;;;;;;;;;;;;;;;1.49;80.16;97629.66;10294105;28;96808;-72
2022/01/12 15:43:01;;;;;;;;;;;;;;;1.32;80.08;97623.38;10294215;28;97044;-72
2022/01/12 15:48:04;;;;;;;;;;;;;;;1.17;80.16;97623.94;10291738;28;97498;-73
2022/01/12 15:53:08;;;;;;;;;;;;;;;0.87;79.80;97620.75;10296517;28;96853;-72
2022/01/12 15:58:11;;;;;;;;;;;;;;;0.62;80.22;97631.88;10288000;28;96885;-72
2022/01/12 16:03:13;;;;;;;;;;;;;;;0.47;80.32;97632.41;10283310;28;97630;-72
2022/01/12 16:08:18;;;;;;;;;;;;;;;0.17;77.99;97640.22;10290093;28;97997;-73
2022/01/12 16:13:22;;;;;;;;;;;;;;;0.03;78.40;97644.06;10290805;28;97006;-72
2022/01/12 16:18:45;;;;;;;;;;;;;;;-0.12;75.64;97643.72;10285569;28;96971;-72
2022/01/12 16:23:50;;;;;;;;;;;;;;;-0.15;79.47;97650.63;10291395;28;96920;-73
2022/01/12 16:28:53;;;;;;;;;;;;;;;-0.10;78.11;97665.88;10294398;28;96796;-72
2022/01/12 16:33:57;;;;;;;;;;;;;;;-0.10;78.32;97663.31;10292386;28;96917;-72
2022/01/12 16:39:02;;;;;;;;;;;;;;;-0.12;77.64;97666.84;10290242;28;96734;-73
2022/01/12 16:44:06;;;;;;;;;;;;;;;-0.16;80.07;97677.19;10293971;28;96989;-74
2022/01/12 16:49:09;;;;;;;;;;;;;;;-0.19;79.53;97687.56;10302234;28;97046;-73
2022/01/12 16:54:19;;;;;;;;;;;;;;;-0.35;79.40;97689.75;10288584;28;96885;-72
2022/01/12 16:59:22;;;;;;;;;;;;;;;-0.42;79.09;97688.25;10286521;28;97502;-73
2022/01/12 17:04:26;;;;;;;;;;;;;;;-0.49;79.67;97704.72;10289712;28;98805;-72
2022/01/12 17:09:30;;;;;;;;;;;;;;;-0.60;80.27;97710.13;10280324;28;96920;-73
2022/01/12 17:14:32;;;;;;;;;;;;;;;-0.63;80.06;97717.06;10293448;28;96849;-72
2022/01/12 17:19:37;;;;;;;;;;;;;;;-0.67;80.07;97712.91;10291305;28;99852;-73
2022/01/12 17:25:24;;;;;;;;;;;;;;;-0.66;77.11;97709.47;10291768;28;97031;-72
2022/01/12 17:30:27;;;;;;;;;;;;;;;-0.68;79.72;97708.66;10286871;28;97123;-72
2022/01/12 17:35:29;;;;;;;;;;;;;;;-0.64;79.13;97705.13;10297613;28;96898;-74
2022/01/12 17:40:39;;;;;;;;;;;;;;;-0.68;78.96;97712.09;10291222;28;96927;-72
2022/01/12 17:45:41;;;;;;;;;;;;;;;-0.74;76.50;97723.34;10294429;28;96827;-72
2022/01/12 17:50:44;;;;;;;;;;;;;;;-0.72;79.17;97729.28;10293147;28;97949;-72
2022/01/12 17:55:48;;;;;;;;;;;;;;;-0.68;79.82;97736.88;10291231;28;97576;-73
2022/01/12 18:00:50;;;;;;;;;;;;;;;-0.68;79.60;97742.00;10292893;28;97292;-73
2022/01/12 18:05:53;;;;;;;;;;;;;;;-0.77;80.78;97746.53;10290662;28;97009;-73
2022/01/12 18:10:57;;;;;;;;;;;;;;;-0.80;80.51;97756.03;10297003;28;96844;-72
2022/01/12 18:16:07;;;;;;;;;;;;;;;-0.87;80.37;97749.34;10295131;28;96998;-72
2022/01/12 18:21:10;;;;;;;;;;;;;;;-0.88;80.47;97753.66;10294266;28;97186;-72
2022/01/12 18:26:14;;;;;;;;;;;;;;;-0.91;80.61;97761.44;10299659;28;96800;-73
2022/01/12 18:31:16;;;;;;;;;;;;;;;-0.90;79.02;97763.13;10297023;28;96799;-72
2022/01/12 18:36:20;;;;;;;;;;;;;;;-0.87;80.10;97768.19;10292309;28;96834;-74
2022/01/12 18:41:24;;;;;;;;;;;;;;;-0.87;79.72;97778.44;10296436;28;97206;-72
2022/01/12 18:46:26;;;;;;;;;;;;;;;-0.88;78.66;97787.00;10289947;28;97316;-72
2022/01/12 18:51:29;;;;;;;;;;;;;;;-0.86;79.24;97790.38;10290446;28;96905;-72
2022/01/12 18:56:34;;;;;;;;;;;;;;;-0.91;78.24;97789.66;10290001;28;97196;-76
2022/01/12 19:01:37;;;;;;;;;;;;;;;-0.94;79.80;97784.63;10292342;28;97121;-72
2022/01/12 19:06:41;;;;;;;;;;;;;;;-0.97;80.20;97802.66;10295293;28;97025;-72
2022/01/12 19:11:45;;;;;;;;;;;;;;;-1.00;79.79;97792.44;10294975;28;96940;-73
2022/01/12 19:16:49;;;;;;;;;;;;;;;-1.00;79.91;97782.19;10295768;28;97909;-74
2022/01/12 19:21:53;;;;;;;;;;;;;;;-1.01;80.15;97785.66;10295365;28;97145;-72
2022/01/12 19:26:57;;;;;;;;;;;;;;;-1.00;80.70;97785.59;10279246;28;98360;-72
2022/01/12 19:32:00;;;;;;;;;;;;;;;-1.00;80.55;97785.59;10294213;28;96758;-68
2022/01/12 19:37:03;;;;;;;;;;;;;;;-1.03;79.84;97788.25;10294001;28;98179;-71
2022/01/12 19:42:07;;;;;;;;;;;;;;;-1.03;80.18;97790.81;10286344;28;97428;-73
2022/01/12 19:47:14;;;;;;;;;;;;;;;-1.05;79.85;97807.94;10295835;28;97114;-72
2022/01/12 19:52:26;;;;;;;;;;;;;;;-1.13;79.62;97797.88;10289988;28;97685;-72
2022/01/12 19:57:32;;;;;;;;;;;;;;;-1.14;79.87;97815.88;10300995;28;96933;-73
2022/01/12 20:02:53;;;;;;;;;;;;;;;-1.15;80.72;97812.47;10294991;28;96983;-72
2022/01/12 20:07:56;;;;;;;;;;;;;;;-1.20;80.72;97814.31;10291300;28;96792;-72
2022/01/12 20:13:00;;;;;;;;;;;;;;;-1.26;81.22;97811.88;10295575;28;97061;-73
2022/01/12 20:21:40;;;;;;;;;;;;;;;-1.36;80.14;97821.53;10291997;28;96779;-72
2022/01/12 20:23:50;;;;;;;;;;;;;;;-1.45;80.36;97826.84;10289484;28;96865;-73
2022/01/12 20:28:55;;;;;;;;;;;;;;;-1.50;80.28;97834.66;10209467;28;97052;-72
2022/01/12 20:33:58;;;;;;;;;;;;;;;-1.57;81.29;97833.09;10206840;28;96878;-72
2022/01/12 20:39:01;;;;;;;;;;;;;;;-1.70;80.61;97841.94;10204911;28;97311;-72
2022/01/12 20:44:05;;;;;;;;;;;;;;;-1.73;81.48;97831.75;10207674;28;97407;-72
2022/01/12 20:49:11;;;;;;;;;;;;;;;-1.75;80.81;97828.38;10207103;28;97040;-72
2022/01/12 20:54:14;;;;;;;;;;;;;;;-1.76;80.61;97836.91;10203411;28;97256;-72
2022/01/12 20:59:20;;;;;;;;;;;;;;;-1.84;81.96;97837.94;10209918;28;97092;-72
2022/01/12 21:04:22;;;;;;;;;;;;;;;-1.93;81.02;97843.25;10242411;28;96905;-72
2022/01/12 21:09:27;;;;;;;;;;;;;;;-2.00;80.90;97834.03;10296839;28;97036;-73
2022/01/12 21:14:31;;;;;;;;;;;;;;;-2.07;82.17;97829.91;10300881;28;97366;-72
2022/01/12 21:19:34;;;;;;;;;;;;;;;-2.06;81.44;97846.94;10299204;28;96736;-72
2022/01/12 21:24:37;;;;;;;;;;;;;;;-2.10;82.11;97842.75;10293924;28;96797;-72
2022/01/12 21:29:41;;;;;;;;;;;;;;;-2.22;81.73;97848.97;10300063;28;96756;-72
2022/01/12 21:34:50;;;;;;;;;;;;;;;-2.36;82.03;97841.53;10298694;28;97030;-73
2022/01/12 21:39:56;;;;;;;;;;;;;;;-2.52;82.20;97847.81;10298367;28;97141;-72
2022/01/12 21:45:00;;;;;;;;;;;;;;;-2.62;82.91;97845.41;10280396;28;97101;-73
2022/01/12 21:50:03;;;;;;;;;;;;;;;-2.76;81.49;97854.22;10300301;28;96857;-73
2022/01/12 21:55:06;;;;;;;;;;;;;;;-2.80;81.96;97858.53;10296011;28;98141;-72
2022/01/12 22:00:12;;;;;;;;;;;;;;;-2.89;81.74;97859.53;10288898;28;97280;-73
2022/01/12 22:05:15;;;;;;;;;;;;;;;-2.88;81.79;97858.66;10299151;28;96794;-73
2022/01/12 22:10:17;;;;;;;;;;;;;;;-3.01;81.98;97858.03;10297058;28;96732;-72
2022/01/12 22:15:22;;;;;;;;;;;;;;;-3.12;81.88;97859.88;10293483;28;96775;-72
2022/01/12 22:20:25;;;;;;;;;;;;;;;-3.22;82.82;97856.66;10291968;28;96886;-73
2022/01/12 22:25:28;;;;;;;;;;;;;;;-3.29;81.85;97856.75;10297213;28;96915;-72
2022/01/12 22:30:32;;;;;;;;;;;;;;;-3.35;82.54;97853.41;10294652;28;96865;-72
2022/01/12 22:35:35;;;;;;;;;;;;;;;-3.42;82.30;97862.03;10297768;28;96751;-72
2022/01/12 22:40:38;;;;;;;;;;;;;;;-3.49;82.66;97865.56;10297168;28;96849;-73
2022/01/12 22:45:42;;;;;;;;;;;;;;;-3.53;83.19;97863.94;10295012;28;97049;-72
2022/01/12 22:50:45;;;;;;;;;;;;;;;-3.57;83.16;97867.38;10296333;28;97009;-72
2022/01/12 22:55:48;;;;;;;;;;;;;;;-3.51;82.92;97872.41;10294821;28;97122;-72
2022/01/12 23:00:52;;;;;;;;;;;;;;;-3.59;81.96;97871.66;10295664;28;96901;-72
2022/01/12 23:05:57;;;;;;;;;;;;;;;-3.67;83.38;97881.13;10290805;28;96911;-72
2022/01/12 23:11:00;;;;;;;;;;;;;;;-3.75;83.55;97884.63;10298682;28;96972;-73
2022/01/12 23:16:04;;;;;;;;;;;;;;;-3.75;83.59;97894.00;10295572;28;97503;-73
2022/01/12 23:21:08;;;;;;;;;;;;;;;-3.80;82.88;97896.59;10293229;28;97175;-72
2022/01/12 23:26:11;;;;;;;;;;;;;;;-3.69;82.92;97904.13;10296964;28;96998;-73
2022/01/12 23:31:15;;;;;;;;;;;;;;;-3.65;82.63;97899.81;10295168;28;97974;-72
2022/01/12 23:52:36;;;;;;;;;;;;;;;-3.31;82.19;97896.81;10294725;28;96731;-72
2022/01/12 23:57:39;;;;;;;;;;;;;;;-3.41;82.48;97904.63;10292523;28;96762;-72
